createdAt,value
2018-04-25T00:00:14.611Z,25.00
2018-04-25T00:02:47.859Z,24.67
2018-04-25T00:05:20.506Z,24.63
2018-04-25T00:07:52.925Z,20.57
2018-04-25T00:10:25.555Z,20.70
2018-04-25T00:12:58.951Z,22.13
2018-04-25T00:15:31.416Z,20.50
2018-04-25T00:18:03.891Z,20.93
2018-04-25T00:20:36.432Z,21.00
2018-04-25T00:23:09.012Z,18.90
2018-04-25T00:25:41.605Z,21.27
2018-04-25T00:28:14.399Z,19.03
2018-04-25T00:30:47.186Z,20.20
2018-04-25T00:33:19.670Z,18.67
2018-04-25T00:35:52.436Z,18.73
2018-04-25T00:38:25.621Z,23.90
2018-04-25T00:40:58.106Z,17.40
2018-04-25T00:43:30.631Z,16.40
2018-04-25T00:46:04.091Z,18.03
2018-04-25T00:48:37.447Z,17.37
2018-04-25T00:51:10.097Z,15.40
2018-04-25T00:53:45.204Z,16.47
2018-04-25T00:56:17.815Z,16.50
2018-04-25T00:58:50.454Z,15.77
2018-04-25T01:01:23.054Z,14.93
2018-04-25T01:03:55.602Z,15.17
2018-04-25T01:06:28.291Z,16.80
2018-04-25T01:09:01.517Z,14.77
2018-04-25T01:11:34.889Z,15.87
2018-04-25T01:14:07.434Z,17.57
2018-04-25T01:16:40.184Z,13.57
2018-04-25T01:19:12.721Z,14.50
2018-04-25T01:21:48.014Z,14.23
2018-04-25T01:24:21.366Z,12.47
2018-04-25T01:26:54.162Z,15.60
2018-04-25T01:29:27.611Z,12.63
2018-04-25T01:32:02.977Z,13.30
2018-04-25T01:34:41.835Z,12.37
2018-04-25T01:37:26.530Z,13.67
2018-04-25T01:39:59.925Z,11.67
2018-04-25T01:42:39.141Z,11.27
2018-04-25T01:45:25.625Z,13.63
2018-04-25T01:48:04.054Z,13.87
2018-04-25T01:50:37.827Z,9.50
2018-04-25T01:53:22.696Z,9.63
2018-04-25T01:56:07.524Z,14.33
2018-04-25T01:58:52.379Z,9.00
2018-04-25T02:01:25.439Z,9.03
2018-04-25T02:03:58.015Z,12.70
2018-04-25T02:06:30.455Z,10.80
2018-04-25T02:09:03.894Z,8.60
2018-04-25T02:11:36.388Z,12.40
2018-04-25T02:14:09.011Z,10.20
2018-04-25T02:16:41.554Z,9.63
2018-04-25T02:19:13.991Z,10.60
2018-04-25T02:21:46.590Z,8.00
2018-04-25T02:24:18.915Z,8.60
2018-04-25T02:26:51.602Z,8.13
2018-04-25T02:29:24.173Z,10.83
2018-04-25T02:31:57.520Z,8.13
2018-04-25T02:34:30.144Z,7.90
2018-04-25T02:37:02.672Z,8.40
2018-04-25T02:39:35.028Z,8.63
2018-04-25T02:42:08.118Z,8.43
2018-04-25T02:44:40.559Z,8.83
2018-04-25T02:47:13.836Z,10.13
2018-04-25T02:49:46.258Z,9.83
2018-04-25T02:52:19.471Z,9.57
2018-04-25T02:54:52.714Z,9.50
2018-04-25T02:57:25.398Z,8.40
2018-04-25T02:59:57.923Z,8.40
2018-04-25T03:02:31.244Z,10.13
2018-04-25T03:05:03.901Z,9.10
2018-04-25T03:07:36.359Z,8.37
2018-04-25T03:10:08.744Z,7.43
2018-04-25T03:12:42.035Z,6.70
2018-04-25T03:15:14.508Z,8.70
2018-04-25T03:17:46.883Z,7.67
2018-04-25T03:20:19.480Z,8.27
2018-04-25T03:22:52.680Z,7.00
2018-04-25T03:25:25.220Z,7.63
2018-04-25T03:28:02.904Z,7.40
2018-04-25T03:30:36.084Z,10.37
2018-04-25T03:33:08.530Z,9.17
2018-04-25T03:35:41.195Z,7.47
2018-04-25T03:38:14.651Z,9.53
2018-04-25T03:40:47.240Z,7.00
2018-04-25T03:43:19.814Z,10.07
2018-04-25T03:45:52.166Z,8.37
2018-04-25T03:48:24.681Z,8.33
2018-04-25T03:50:57.259Z,6.43
2018-04-25T03:53:30.640Z,9.40
2018-04-25T03:56:03.298Z,7.33
2018-04-25T03:58:35.753Z,13.17
2018-04-25T04:01:08.144Z,7.20
2018-04-25T04:03:41.456Z,10.03
2018-04-25T04:06:14.152Z,10.17
2018-04-25T04:08:46.761Z,8.63
2018-04-25T04:11:19.480Z,8.73
2018-04-25T04:13:52.196Z,8.30
2018-04-25T04:16:24.713Z,9.30
2018-04-25T04:18:57.083Z,8.70
2018-04-25T04:21:29.644Z,8.17
2018-04-25T04:24:03.773Z,10.77
2018-04-25T04:26:38.862Z,11.20
2018-04-25T04:29:11.404Z,9.97
2018-04-25T04:31:44.003Z,10.23
2018-04-25T04:34:16.604Z,9.80
2018-04-25T04:36:49.144Z,9.60
2018-04-25T04:39:21.699Z,10.53
2018-04-25T04:41:54.395Z,9.27
2018-04-25T04:44:26.934Z,12.07
2018-04-25T04:46:59.335Z,12.07
2018-04-25T04:49:32.089Z,10.50
2018-04-25T04:52:04.704Z,10.30
2018-04-25T04:54:37.369Z,11.77
2018-04-25T04:57:09.905Z,10.90
2018-04-25T04:59:42.619Z,9.43
2018-04-25T05:02:15.481Z,9.00
2018-04-25T05:04:49.584Z,11.60
2018-04-25T05:07:22.138Z,11.90
2018-04-25T05:09:55.411Z,10.37
2018-04-25T05:12:27.961Z,11.33
2018-04-25T05:15:00.785Z,12.90
2018-04-25T05:17:33.427Z,11.13
2018-04-25T05:20:06.096Z,12.60
2018-04-25T05:22:38.755Z,10.23
2018-04-25T05:25:11.321Z,15.50
2018-04-25T05:27:44.117Z,15.27
2018-04-25T05:30:16.622Z,13.43
2018-04-25T05:32:49.831Z,14.10
2018-04-25T05:35:22.424Z,14.20
2018-04-25T05:37:54.976Z,11.53
2018-04-25T05:40:28.590Z,18.37
2018-04-25T05:43:01.097Z,11.87
2018-04-25T05:45:34.393Z,14.57
2018-04-25T05:48:06.989Z,14.40
2018-04-25T05:50:39.580Z,15.17
2018-04-25T05:53:12.776Z,12.80
2018-04-25T05:55:45.423Z,12.10
2018-04-25T05:58:18.009Z,13.80
2018-04-25T06:00:51.268Z,11.73
2018-04-25T06:03:23.923Z,12.33
2018-04-25T06:05:56.558Z,13.10
2018-04-25T06:08:29.183Z,15.27
2018-04-25T06:11:01.739Z,15.37
2018-04-25T06:13:34.826Z,18.07
2018-04-25T06:16:07.303Z,11.37
2018-04-25T06:18:39.719Z,12.30
2018-04-25T06:21:12.912Z,14.97
2018-04-25T06:23:45.252Z,13.37
2018-04-25T06:26:17.849Z,13.90
2018-04-25T06:28:51.212Z,13.70
2018-04-25T06:31:24.675Z,14.73
2018-04-25T06:33:57.387Z,13.17
2018-04-25T06:36:30.307Z,15.47
2018-04-25T06:39:03.032Z,14.77
2018-04-25T06:41:35.623Z,14.13
2018-04-25T06:44:08.197Z,12.10
2018-04-25T06:46:40.581Z,10.57
2018-04-25T06:49:13.051Z,14.20
2018-04-25T06:51:45.598Z,11.57
2018-04-25T06:54:18.138Z,12.20
2018-04-25T06:56:50.970Z,14.33
2018-04-25T06:59:24.090Z,9.93
2018-04-25T07:01:57.339Z,15.60
2018-04-25T07:04:29.799Z,10.77
2018-04-25T07:07:02.429Z,11.17
2018-04-25T07:09:35.157Z,7.87
2018-04-25T07:12:08.546Z,9.37
2018-04-25T07:14:40.944Z,7.23
2018-04-25T07:17:13.456Z,8.47
2018-04-25T07:19:46.128Z,5.80
2018-04-25T07:22:18.705Z,4.90
2018-04-25T07:24:52.028Z,5.07
2018-04-25T07:27:24.391Z,5.40
2018-04-25T07:29:56.783Z,5.37
2018-04-25T07:32:29.470Z,6.10
2018-04-25T07:35:01.941Z,4.70
2018-04-25T07:37:34.641Z,3.67
2018-04-25T07:40:07.272Z,4.83
2018-04-25T07:42:40.793Z,4.40
2018-04-25T07:45:13.322Z,5.00
2018-04-25T07:47:45.690Z,7.00
2018-04-25T07:50:18.297Z,4.97
2018-04-25T07:52:50.963Z,4.50
2018-04-25T07:55:23.738Z,4.70
2018-04-25T07:57:56.277Z,5.53
2018-04-25T08:00:28.658Z,5.57
2018-04-25T08:03:01.152Z,5.37
2018-04-25T08:05:33.679Z,4.90
2018-04-25T08:08:06.336Z,4.40
2018-04-25T08:10:38.950Z,5.00
2018-04-25T08:13:24.529Z,5.47
2018-04-25T08:16:09.354Z,4.73
2018-04-25T08:19:06.883Z,4.80
2018-04-25T08:21:40.344Z,5.97
2018-04-25T08:24:12.946Z,7.07
2018-04-25T08:26:45.345Z,7.87
2018-04-25T08:29:18.660Z,8.50
2018-04-25T08:31:52.522Z,9.50
2018-04-25T08:34:25.035Z,9.60
2018-04-25T08:36:57.615Z,9.53
2018-04-25T08:39:30.154Z,8.67
2018-04-25T08:42:03.391Z,8.20
2018-04-25T08:44:36.638Z,9.60
2018-04-25T08:47:10.059Z,8.47
2018-04-25T08:49:43.298Z,8.87
2018-04-25T08:52:15.785Z,9.70
2018-04-25T08:54:48.180Z,9.07
2018-04-25T08:57:20.884Z,9.63
2018-04-25T08:59:53.362Z,9.00
2018-04-25T09:02:26.149Z,9.20
2018-04-25T09:04:58.688Z,9.00
2018-04-25T09:07:31.281Z,8.77
2018-04-25T09:10:03.773Z,9.53
2018-04-25T09:12:36.480Z,9.00
2018-04-25T09:15:09.058Z,9.37
2018-04-25T09:17:41.680Z,8.77
2018-04-25T09:20:15.490Z,9.00
2018-04-25T09:22:48.655Z,9.30
2018-04-25T09:25:21.960Z,8.03
2018-04-25T09:27:54.439Z,7.23
2018-04-25T09:30:27.454Z,7.73
2018-04-25T09:32:59.857Z,7.93
2018-04-25T09:35:32.549Z,7.50
2018-04-25T09:38:05.214Z,6.87
2018-04-25T09:40:37.845Z,6.97
2018-04-25T09:43:10.260Z,6.37
2018-04-25T09:45:42.637Z,6.50
2018-04-25T09:48:15.285Z,6.17
2018-04-25T09:50:47.759Z,6.20
2018-04-25T09:53:21.316Z,5.97
2018-04-25T09:55:53.941Z,6.97
2018-04-25T09:58:26.632Z,7.77
2018-04-25T10:00:59.921Z,6.47
2018-04-25T10:03:32.851Z,6.77
2018-04-25T10:06:06.147Z,6.60
2018-04-25T10:08:38.557Z,6.70
2018-04-25T10:11:11.672Z,7.20
2018-04-25T10:13:44.210Z,7.30
2018-04-25T10:16:16.710Z,6.73
2018-04-25T10:18:49.175Z,9.10
2018-04-25T10:21:21.738Z,7.70
2018-04-25T10:23:54.265Z,6.57
2018-04-25T10:26:28.072Z,6.93
2018-04-25T10:29:01.497Z,7.53
2018-04-25T10:31:34.249Z,8.07
2018-04-25T10:34:06.977Z,6.30
2018-04-25T10:36:39.577Z,5.77
2018-04-25T10:39:12.107Z,6.13
2018-04-25T10:41:44.486Z,8.17
2018-04-25T10:44:17.208Z,8.47
2018-04-25T10:46:49.846Z,6.13
2018-04-25T10:49:22.415Z,6.17
2018-04-25T10:51:55.010Z,6.30
2018-04-25T10:54:28.615Z,5.83
2018-04-25T10:57:01.906Z,5.17
2018-04-25T10:59:34.306Z,4.70
2018-04-25T11:02:06.848Z,4.93
2018-04-25T11:04:40.362Z,4.20
2018-04-25T11:07:12.708Z,4.37
2018-04-25T11:09:45.955Z,4.47
2018-04-25T11:12:18.608Z,5.20
2018-04-25T11:14:51.196Z,5.43
2018-04-25T11:17:23.658Z,4.90
2018-04-25T11:19:57.027Z,4.80
2018-04-25T11:22:29.560Z,5.00
2018-04-25T11:25:02.326Z,5.50
2018-04-25T11:27:34.844Z,5.37
2018-04-25T11:30:07.375Z,5.83
2018-04-25T11:32:41.580Z,4.20
2018-04-25T11:35:14.192Z,5.53
2018-04-25T11:37:46.862Z,5.27
2018-04-25T11:40:19.504Z,4.83
2018-04-25T11:42:52.015Z,4.60
2018-04-25T11:45:25.235Z,6.40
2018-04-25T11:47:57.801Z,5.23
2018-04-25T11:50:30.354Z,5.93
2018-04-25T11:53:03.006Z,3.83
2018-04-25T11:55:35.370Z,7.60
2018-04-25T11:58:08.570Z,5.40
2018-04-25T12:00:42.148Z,5.20
2018-04-25T12:03:15.415Z,5.10
2018-04-25T12:05:47.865Z,4.70
2018-04-25T12:08:20.346Z,4.80
2018-04-25T12:10:53.540Z,5.00
2018-04-25T12:13:26.815Z,5.63
2018-04-25T12:15:59.414Z,6.07
2018-04-25T12:18:31.993Z,5.07
2018-04-25T12:21:04.556Z,5.10
2018-04-25T12:23:37.428Z,5.03
2018-04-25T12:26:09.945Z,5.97
2018-04-25T12:28:42.501Z,5.57
2018-04-25T12:31:14.889Z,6.77
2018-04-25T12:33:48.164Z,6.17
2018-04-25T12:36:20.767Z,5.53
2018-04-25T12:38:53.370Z,6.20
2018-04-25T12:41:26.553Z,6.17
2018-04-25T12:43:58.906Z,5.90
2018-04-25T12:46:32.115Z,5.13
2018-04-25T12:49:04.955Z,5.83
2018-04-25T12:51:37.592Z,5.97
2018-04-25T12:54:10.151Z,5.63
2018-04-25T12:56:42.596Z,5.50
2018-04-25T12:59:15.201Z,4.83
2018-04-25T13:01:47.753Z,5.17
2018-04-25T13:04:20.175Z,7.80
2018-04-25T13:06:52.733Z,5.17
2018-04-25T13:09:25.960Z,4.87
2018-04-25T13:11:58.285Z,6.00
2018-04-25T13:14:30.760Z,5.70
2018-04-25T13:17:03.214Z,8.20
2018-04-25T13:19:36.489Z,5.13
2018-04-25T13:22:09.565Z,5.87
2018-04-25T13:24:42.034Z,4.60
2018-04-25T13:27:15.187Z,4.90
2018-04-25T13:29:48.141Z,8.30
2018-04-25T13:32:20.865Z,5.97
2018-04-25T13:34:53.486Z,5.17
2018-04-25T13:37:26.040Z,5.17
2018-04-25T13:39:58.686Z,7.20
2018-04-25T13:42:31.401Z,4.70
2018-04-25T13:45:04.032Z,7.83
2018-04-25T13:47:37.235Z,5.63
2018-04-25T13:50:09.821Z,7.47
2018-04-25T13:52:42.270Z,8.23
2018-04-25T13:55:15.036Z,6.00
2018-04-25T13:57:48.251Z,6.07
2018-04-25T14:00:20.791Z,7.77
2018-04-25T14:02:53.126Z,5.40
2018-04-25T14:05:25.687Z,6.57
2018-04-25T14:07:58.251Z,5.03
2018-04-25T14:10:30.945Z,6.83
2018-04-25T14:13:03.580Z,4.70
2018-04-25T14:15:36.070Z,5.93
2018-04-25T14:18:08.796Z,6.33
2018-04-25T14:20:41.739Z,5.10
2018-04-25T14:23:14.334Z,5.40
2018-04-25T14:25:46.863Z,4.70
2018-04-25T14:28:19.336Z,5.20
2018-04-25T14:30:52.097Z,5.83
2018-04-25T14:33:24.561Z,5.97
2018-04-25T14:35:57.730Z,5.57
2018-04-25T14:38:30.583Z,5.43
2018-04-25T14:41:03.159Z,4.93
2018-04-25T14:43:35.795Z,4.57
2018-04-25T14:46:08.318Z,6.77
2018-04-25T14:48:41.815Z,6.43
2018-04-25T14:51:14.357Z,6.80
2018-04-25T14:53:46.749Z,6.20
2018-04-25T14:56:20.064Z,5.67
2018-04-25T14:58:52.777Z,6.57
2018-04-25T15:01:25.382Z,6.33
2018-04-25T15:03:57.954Z,4.73
2018-04-25T15:06:31.165Z,6.53
2018-04-25T15:09:04.471Z,5.73
2018-04-25T15:11:37.067Z,7.37
2018-04-25T15:14:09.600Z,5.70
2018-04-25T15:16:42.175Z,5.73
2018-04-25T15:19:14.647Z,5.43
2018-04-25T15:21:47.332Z,5.67
2018-04-25T15:24:20.139Z,10.00
2018-04-25T15:26:52.811Z,5.70
2018-04-25T15:29:25.415Z,6.53
2018-04-25T15:31:57.975Z,4.70
2018-04-25T15:34:30.723Z,5.30
2018-04-25T15:37:04.405Z,4.93
2018-04-25T15:39:36.938Z,5.00
2018-04-25T15:42:10.613Z,5.40
2018-04-25T15:44:43.197Z,7.07
2018-04-25T15:47:15.942Z,6.07
2018-04-25T15:49:49.386Z,9.03
2018-04-25T15:52:22.211Z,9.37
2018-04-25T15:54:54.666Z,6.77
2018-04-25T15:57:27.515Z,8.20
2018-04-25T16:00:00.037Z,6.60
2018-04-25T16:02:33.192Z,6.47
2018-04-25T16:05:05.869Z,6.30
2018-04-25T16:07:39.276Z,6.40
2018-04-25T16:10:12.551Z,6.23
2018-04-25T16:12:45.201Z,5.70
2018-04-25T16:15:17.689Z,6.07
2018-04-25T16:17:50.296Z,6.17
2018-04-25T16:20:22.943Z,5.43
2018-04-25T16:22:55.397Z,9.93
2018-04-25T16:25:28.523Z,5.70
2018-04-25T16:28:01.915Z,4.50
2018-04-25T16:30:35.214Z,4.63
2018-04-25T16:33:07.632Z,4.07
2018-04-25T16:35:40.188Z,6.60
2018-04-25T16:38:13.585Z,7.00
2018-04-25T16:40:47.529Z,5.03
2018-04-25T16:43:20.806Z,6.67
2018-04-25T16:45:53.373Z,4.67
2018-04-25T16:48:26.045Z,5.07
2018-04-25T16:50:58.503Z,5.47
2018-04-25T16:53:32.192Z,6.47
2018-04-25T16:56:04.856Z,6.67
2018-04-25T16:58:37.433Z,4.97
2018-04-25T17:01:10.148Z,5.13
2018-04-25T17:03:42.806Z,5.27
2018-04-25T17:06:15.355Z,5.43
2018-04-25T17:08:48.097Z,5.57
2018-04-25T17:11:20.687Z,6.23
2018-04-25T17:13:53.210Z,5.70
2018-04-25T17:16:25.802Z,5.40
2018-04-25T17:18:58.868Z,5.90
2018-04-25T17:21:31.288Z,5.57
2018-04-25T17:24:03.748Z,5.33
2018-04-25T17:26:36.512Z,4.77
2018-04-25T17:29:09.299Z,5.77
2018-04-25T17:31:41.794Z,5.40
2018-04-25T17:34:15.328Z,5.83
2018-04-25T17:36:47.833Z,5.60
2018-04-25T17:39:20.602Z,4.70
2018-04-25T17:41:53.265Z,8.60
2018-04-25T17:44:26.022Z,5.83
2018-04-25T17:46:58.668Z,5.73
2018-04-25T17:49:31.417Z,6.00
2018-04-25T17:52:04.071Z,5.90
2018-04-25T17:54:36.888Z,5.37
2018-04-25T17:57:09.685Z,6.73
2018-04-25T17:59:42.940Z,5.77
2018-04-25T18:02:16.202Z,6.07
2018-04-25T18:04:49.009Z,5.87
2018-04-25T18:07:21.654Z,4.80
2018-04-25T18:09:54.421Z,5.33
2018-04-25T18:12:27.226Z,6.60
2018-04-25T18:14:59.718Z,5.40
2018-04-25T18:17:32.102Z,6.83
2018-04-25T18:20:04.626Z,5.30
2018-04-25T18:22:37.581Z,5.50
2018-04-25T18:25:10.455Z,6.23
2018-04-25T18:27:43.144Z,5.53
2018-04-25T18:30:16.398Z,5.03
2018-04-25T18:32:49.565Z,5.63
2018-04-25T18:35:22.449Z,5.90
2018-04-25T18:37:55.269Z,5.33
2018-04-25T18:40:28.321Z,7.07
2018-04-25T18:43:01.052Z,7.93
2018-04-25T18:45:33.619Z,6.40
2018-04-25T18:48:06.988Z,5.70
2018-04-25T18:50:39.998Z,6.60
2018-04-25T18:53:13.219Z,6.80
2018-04-25T18:55:46.465Z,5.90
2018-04-25T18:58:20.211Z,6.97
2018-04-25T19:00:53.571Z,5.97
2018-04-25T19:03:26.233Z,6.50
2018-04-25T19:05:58.974Z,6.00
2018-04-25T19:08:32.295Z,6.00
2018-04-25T19:11:04.881Z,6.33
2018-04-25T19:13:37.494Z,9.83
2018-04-25T19:16:10.445Z,6.73
2018-04-25T19:18:44.018Z,7.40
2018-04-25T19:21:16.892Z,6.80
2018-04-25T19:23:50.192Z,8.37
2018-04-25T19:26:22.936Z,6.27
2018-04-25T19:28:55.662Z,5.57
2018-04-25T19:31:28.525Z,6.70
2018-04-25T19:34:01.250Z,5.37
2018-04-25T19:36:34.841Z,6.97
2018-04-25T19:39:07.430Z,6.70
2018-04-25T19:41:40.404Z,7.20
2018-04-25T19:44:13.914Z,6.10
2018-04-25T19:46:46.565Z,6.80
2018-04-25T19:49:19.237Z,7.37
2018-04-25T19:51:51.814Z,5.27
2018-04-25T19:54:24.535Z,6.40
2018-04-25T19:56:57.211Z,7.27
2018-04-25T19:59:30.090Z,6.77
2018-04-25T20:02:02.736Z,6.20
2018-04-25T20:04:35.553Z,6.70
2018-04-25T20:07:08.155Z,7.43
2018-04-25T20:09:41.382Z,11.07
2018-04-25T20:12:13.890Z,9.73
2018-04-25T20:14:46.606Z,11.90
2018-04-25T20:17:19.237Z,9.90
2018-04-25T20:19:51.795Z,13.23
2018-04-25T20:22:24.456Z,10.20
2018-04-25T20:24:57.345Z,11.43
2018-04-25T20:27:30.133Z,10.63
2018-04-25T20:30:04.333Z,12.67
2018-04-25T20:32:36.908Z,12.47
2018-04-25T20:35:09.489Z,12.13
2018-04-25T20:37:42.242Z,13.23
2018-04-25T20:40:14.821Z,13.17
2018-04-25T20:42:47.375Z,12.27
2018-04-25T20:45:20.183Z,13.40
2018-04-25T20:47:52.809Z,13.17
2018-04-25T20:50:25.573Z,12.80
2018-04-25T20:52:58.064Z,13.97
2018-04-25T20:55:30.966Z,13.87
2018-04-25T20:58:03.465Z,16.10
2018-04-25T21:00:36.106Z,14.93
2018-04-25T21:03:08.946Z,14.83
2018-04-25T21:05:41.550Z,14.17
2018-04-25T21:08:14.296Z,13.00
2018-04-25T21:10:47.550Z,13.73
2018-04-25T21:13:20.066Z,13.83
2018-04-25T21:15:53.361Z,14.70
2018-04-25T21:18:25.768Z,14.73
2018-04-25T21:20:58.514Z,15.33
2018-04-25T21:23:30.987Z,16.40
2018-04-25T21:26:11.275Z,16.27
2018-04-25T21:28:44.117Z,12.63
2018-04-25T21:31:17.531Z,12.60
2018-04-25T21:33:49.937Z,13.53
2018-04-25T21:36:22.675Z,12.53
2018-04-25T21:38:55.830Z,12.47
2018-04-25T21:41:28.717Z,11.63
2018-04-25T21:44:01.345Z,10.47
2018-04-25T21:46:34.466Z,11.93
2018-04-25T21:49:07.106Z,14.40
2018-04-25T21:51:40.175Z,12.33
2018-04-25T21:54:13.650Z,11.00
2018-04-25T21:56:46.152Z,14.63
2018-04-25T21:59:18.735Z,13.17
2018-04-25T22:01:51.291Z,14.20
2018-04-25T22:04:24.069Z,15.70
2018-04-25T22:06:56.477Z,16.63
2018-04-25T22:09:30.391Z,14.30
2018-04-25T22:12:02.845Z,16.20
2018-04-25T22:14:35.396Z,16.87
2018-04-25T22:17:08.026Z,18.93
2018-04-25T22:19:40.854Z,15.47
2018-04-25T22:22:14.042Z,16.60
2018-04-25T22:24:46.537Z,16.57
2018-04-25T22:27:19.296Z,17.10
2018-04-25T22:29:52.577Z,18.90
2018-04-25T22:32:25.268Z,20.20
2018-04-25T22:34:57.802Z,22.07
2018-04-25T22:37:30.376Z,23.03
2018-04-25T22:40:02.927Z,19.67
2018-04-25T22:42:35.577Z,21.90
2018-04-25T22:45:08.070Z,19.07
2018-04-25T22:47:40.490Z,21.57
2018-04-25T22:50:13.241Z,24.90
2018-04-25T22:52:46.540Z,20.37
2018-04-25T22:55:18.976Z,23.50
2018-04-25T22:57:52.054Z,21.40
2018-04-25T23:00:24.781Z,23.70
2018-04-25T23:02:57.375Z,26.13
2018-04-25T23:08:19.140Z,21.40
2018-04-25T23:10:51.959Z,25.33
2018-04-25T23:16:26.619Z,21.90
2018-04-25T23:18:59.279Z,24.40
2018-04-25T23:21:32.493Z,22.23
2018-04-25T23:24:05.001Z,23.97
2018-04-25T23:26:37.672Z,24.57
2018-04-25T23:29:10.840Z,24.37
2018-04-25T23:31:43.390Z,26.50
2018-04-25T23:34:15.810Z,23.57
2018-04-25T23:36:48.492Z,27.03
2018-04-25T23:39:21.035Z,24.40
2018-04-25T23:41:53.395Z,22.97
2018-04-25T23:44:25.804Z,23.47
2018-04-25T23:46:58.182Z,22.07
2018-04-25T23:49:31.412Z,22.90
2018-04-25T23:52:03.910Z,22.23
2018-04-25T23:54:36.367Z,22.90
2018-04-25T23:57:08.954Z,23.30
2018-04-25T23:59:41.635Z,22.80
